Time;durP1;ratioP1;P1;durP2;ratioP2;P2;SDS_P1;SDS_P2;PMS_P1;PMS_P2;Temp;Humidity;BMP_temperature;BMP_pressure;BME280_temperature;BME280_humidity;BME280_pressure;Samples;Min_cycle;Max_cycle;Signal;HPM_P1;HPM_P2
2024/03/20 00:02:31;;;;;;;6.17;3.30;;;;;;;;;;6044076;23;20428;-83
2024/03/20 00:05:00;;;;;;;5.03;4.07;;;;;;;;;;6041651;23;20426;-87
2024/03/20 00:07:37;;;;;;;6.00;3.57;;;;;;;;;;6039785;23;20524;-86
2024/03/20 00:10:12;;;;;;;6.13;3.93;;;;;;;;;;6041325;23;20408;-88
2024/03/20 00:12:44;;;;;;;3.93;3.43;;;;;;;;;;6047077;23;20408;-86
2024/03/20 00:15:11;;;;;;;5.13;3.90;;;;;;;;;;6084371;23;20438;-87
2024/03/20 00:17:38;;;;;;;5.37;4.17;;;;;;;;;;6063786;23;20497;-88
2024/03/20 00:20:12;;;;;;;4.23;3.30;;;;;;;;;;6088697;23;20404;-89
2024/03/20 00:22:39;;;;;;;4.30;3.50;;;;;;;;;;6065302;23;20469;-88
2024/03/20 00:25:11;;;;;;;9.73;3.70;;;;;;;;;;6065764;23;20477;-89
2024/03/20 00:27:39;;;;;;;5.37;3.80;;;;;;;;;;6065878;23;20493;-89
2024/03/20 00:30:08;;;;;;;4.67;4.20;;;;;;;;;;6087804;23;20477;-87
2024/03/20 00:32:43;;;;;;;7.10;4.20;;;;;;;;;;6087596;23;20506;-85
2024/03/20 00:35:11;;;;;;;5.17;3.60;;;;;;;;;;6066645;23;20492;-89
2024/03/20 00:37:47;;;;;;;4.33;3.93;;;;;;;;;;6067108;23;20584;-89
2024/03/20 00:40:19;;;;;;;7.17;4.13;;;;;;;;;;6062874;23;20409;-85
2024/03/20 00:42:48;;;;;;;6.80;4.10;;;;;;;;;;6059891;23;20919;-87
2024/03/20 00:45:18;;;;;;;5.30;4.10;;;;;;;;;;6061635;23;20405;-87
2024/03/20 00:47:54;;;;;;;5.73;4.40;;;;;;;;;;6058777;23;20425;-85
2024/03/20 00:50:24;;;;;;;5.00;4.20;;;;;;;;;;6053523;23;20406;-85
2024/03/20 00:52:53;;;;;;;5.30;4.07;;;;;;;;;;6077785;23;20410;-85
2024/03/20 00:55:27;;;;;;;5.20;3.70;;;;;;;;;;6054120;23;20456;-87
2024/03/20 00:58:10;;;;;;;5.23;4.57;;;;;;;;;;6063740;23;20482;-88
2024/03/20 01:00:44;;;;;;;6.20;4.00;;;;;;;;;;6063461;23;20465;-88
2024/03/20 01:03:13;;;;;;;4.50;4.10;;;;;;;;;;6055287;23;20420;-88
2024/03/20 01:05:45;;;;;;;7.80;4.60;;;;;;;;;;6056005;23;20413;-85
2024/03/20 01:08:18;;;;;;;4.83;3.90;;;;;;;;;;6055869;23;20417;-86
2024/03/20 01:10:47;;;;;;;5.67;4.13;;;;;;;;;;6063393;23;20419;-86
2024/03/20 01:13:32;;;;;;;4.17;3.77;;;;;;;;;;6090564;23;20428;-86
2024/03/20 01:16:08;;;;;;;4.40;4.00;;;;;;;;;;6061977;23;20462;-88
2024/03/20 01:18:37;;;;;;;5.93;4.13;;;;;;;;;;6061023;23;20424;-87
2024/03/20 01:21:10;;;;;;;4.40;4.00;;;;;;;;;;6059406;23;20475;-87
2024/03/20 01:23:48;;;;;;;6.37;4.13;;;;;;;;;;6065783;23;20709;-88
2024/03/20 01:26:21;;;;;;;6.30;3.60;;;;;;;;;;6067531;23;20487;-88
2024/03/20 01:28:55;;;;;;;4.03;3.63;;;;;;;;;;6067158;23;20500;-88
2024/03/20 01:31:24;;;;;;;4.53;4.13;;;;;;;;;;6066949;23;20468;-86
2024/03/20 01:33:56;;;;;;;4.77;4.30;;;;;;;;;;6061015;23;20405;-87
2024/03/20 01:36:28;;;;;;;4.77;4.10;;;;;;;;;;6051482;23;20443;-86
2024/03/20 01:38:55;;;;;;;4.20;3.63;;;;;;;;;;6049127;23;20423;-85
2024/03/20 01:41:33;;;;;;;6.30;4.33;;;;;;;;;;6049111;23;20405;-85
2024/03/20 01:44:02;;;;;;;9.83;4.83;;;;;;;;;;6049787;23;20408;-85
2024/03/20 01:49:21;;;;;;;4.83;4.43;;;;;;;;;;6065945;23;20442;-85
2024/03/20 01:51:50;;;;;;;5.23;4.33;;;;;;;;;;6043210;23;20414;-85
2024/03/20 01:54:16;;;;;;;7.13;4.27;;;;;;;;;;6042280;23;20410;-88
2024/03/20 01:56:44;;;;;;;5.43;4.57;;;;;;;;;;6017978;23;20472;-85
2024/03/20 01:59:19;;;;;;;6.00;4.83;;;;;;;;;;6018389;23;20402;-84
2024/03/20 02:01:52;;;;;;;4.90;4.33;;;;;;;;;;6018986;23;20401;-86
2024/03/20 02:04:24;;;;;;;5.73;4.20;;;;;;;;;;6019748;23;20891;-86
2024/03/20 02:07:17;;;;;;;6.30;5.17;;;;;;;;;;6014751;23;20429;-86
2024/03/20 02:09:44;;;;;;;8.17;4.73;;;;;;;;;;6064059;23;21283;-85
2024/03/20 02:12:26;;;;;;;5.60;4.83;;;;;;;;;;6015558;23;21204;-86
2024/03/20 02:14:52;;;;;;;6.80;5.70;;;;;;;;;;6041342;23;20456;-87
2024/03/20 02:17:19;;;;;;;7.07;5.53;;;;;;;;;;6015866;23;20457;-85
2024/03/20 02:19:51;;;;;;;5.17;4.30;;;;;;;;;;6019081;23;20405;-88
2024/03/20 02:22:17;;;;;;;5.70;4.90;;;;;;;;;;6041036;23;20409;-86
2024/03/20 02:24:44;;;;;;;5.40;4.90;;;;;;;;;;6015224;23;20466;-86
2024/03/20 02:27:13;;;;;;;6.00;4.43;;;;;;;;;;6016353;23;20535;-88
2024/03/20 02:29:40;;;;;;;9.33;5.60;;;;;;;;;;6017995;23;20406;-86
2024/03/20 02:32:06;;;;;;;6.67;5.67;;;;;;;;;;6048521;23;20410;-87
2024/03/20 02:34:33;;;;;;;6.63;5.10;;;;;;;;;;6017760;23;20456;-88
2024/03/20 02:36:59;;;;;;;5.47;4.57;;;;;;;;;;6016545;23;20426;-87
2024/03/20 02:39:26;;;;;;;6.07;4.97;;;;;;;;;;6040270;23;20409;-86
2024/03/20 02:41:52;;;;;;;6.87;5.60;;;;;;;;;;6017743;23;20460;-86
2024/03/20 02:44:19;;;;;;;6.37;4.57;;;;;;;;;;6014993;23;20406;-86
2024/03/20 02:46:51;;;;;;;6.20;5.60;;;;;;;;;;6015382;23;20496;-85
2024/03/20 02:49:17;;;;;;;6.50;5.53;;;;;;;;;;6010593;23;20418;-85
2024/03/20 02:51:44;;;;;;;6.13;5.13;;;;;;;;;;6014587;23;20410;-87
2024/03/20 02:54:11;;;;;;;6.33;5.07;;;;;;;;;;6016173;23;20406;-87
2024/03/20 02:56:40;;;;;;;6.10;5.30;;;;;;;;;;6017222;23;20426;-89
2024/03/20 02:59:07;;;;;;;5.77;5.20;;;;;;;;;;6015154;23;20403;-86
2024/03/20 03:01:34;;;;;;;5.87;5.30;;;;;;;;;;6018961;23;20395;-89
2024/03/20 03:04:00;;;;;;;6.10;4.70;;;;;;;;;;6016953;23;20399;-87
2024/03/20 03:06:30;;;;;;;5.03;4.47;;;;;;;;;;6015464;23;20445;-87
2024/03/20 03:08:59;;;;;;;5.03;4.47;;;;;;;;;;6013749;23;20411;-89
2024/03/20 03:11:27;;;;;;;6.50;4.20;;;;;;;;;;6013861;23;20399;-86
2024/03/20 03:13:54;;;;;;;4.40;4.00;;;;;;;;;;6014176;23;20733;-89
2024/03/20 03:16:23;;;;;;;5.20;4.60;;;;;;;;;;6012505;23;20458;-87
2024/03/20 03:18:50;;;;;;;5.40;4.33;;;;;;;;;;6014634;23;20943;-87
2024/03/20 03:21:16;;;;;;;4.70;3.53;;;;;;;;;;6013093;23;20489;-91
2024/03/20 03:23:45;;;;;;;5.63;3.70;;;;;;;;;;6011679;23;20414;-88
2024/03/20 03:26:19;;;;;;;4.40;4.00;;;;;;;;;;6013749;23;20406;-86
2024/03/20 03:28:46;;;;;;;5.50;4.10;;;;;;;;;;6013369;23;20778;-86
2024/03/20 03:31:15;;;;;;;4.17;3.77;;;;;;;;;;6015412;23;20481;-88
2024/03/20 03:33:47;;;;;;;4.37;4.03;;;;;;;;;;6015053;23;20399;-88
2024/03/20 03:36:13;;;;;;;4.70;4.13;;;;;;;;;;6015400;23;20791;-88
2024/03/20 03:38:40;;;;;;;5.70;5.03;;;;;;;;;;6016184;23;20475;-89
2024/03/20 03:41:11;;;;;;;5.60;4.43;;;;;;;;;;6022279;23;20411;-88
2024/03/20 03:43:38;;;;;;;5.07;4.13;;;;;;;;;;6022058;23;20412;-86
2024/03/20 03:46:05;;;;;;;6.43;4.97;;;;;;;;;;6018701;23;20411;-87
2024/03/20 03:48:33;;;;;;;5.80;5.07;;;;;;;;;;6016267;23;20501;-88
2024/03/20 03:51:01;;;;;;;5.00;4.50;;;;;;;;;;6026984;23;20421;-88
2024/03/20 03:53:30;;;;;;;5.20;4.70;;;;;;;;;;6031428;23;20406;-88
2024/03/20 03:55:57;;;;;;;4.50;4.10;;;;;;;;;;6028760;23;20472;-90
2024/03/20 03:58:23;;;;;;;7.33;4.80;;;;;;;;;;6024053;23;20436;-88
2024/03/20 04:00:52;;;;;;;6.83;4.73;;;;;;;;;;6015919;23;20442;-88
2024/03/20 04:03:23;;;;;;;6.03;4.60;;;;;;;;;;6015667;23;20705;-88
2024/03/20 04:05:51;;;;;;;7.67;5.00;;;;;;;;;;6014606;23;20411;-88
2024/03/20 04:08:20;;;;;;;7.60;4.20;;;;;;;;;;6013962;23;20433;-88
2024/03/20 04:10:47;;;;;;;5.90;5.30;;;;;;;;;;6015454;23;20413;-88
2024/03/20 04:13:13;;;;;;;4.30;3.87;;;;;;;;;;6030748;23;20395;-89
2024/03/20 04:15:45;;;;;;;5.50;4.67;;;;;;;;;;6054230;23;20450;-89
2024/03/20 04:18:13;;;;;;;5.57;4.40;;;;;;;;;;6049138;23;20423;-89
2024/03/20 04:20:39;;;;;;;5.13;4.27;;;;;;;;;;6021753;23;20411;-87
2024/03/20 04:23:06;;;;;;;5.90;4.23;;;;;;;;;;6018509;23;21520;-88
2024/03/20 04:25:38;;;;;;;7.50;4.83;;;;;;;;;;6017123;23;21002;-86
2024/03/20 04:28:09;;;;;;;4.90;4.40;;;;;;;;;;6017070;23;20437;-87
2024/03/20 04:30:38;;;;;;;8.80;4.47;;;;;;;;;;6017087;23;20904;-88
2024/03/20 04:33:14;;;;;;;6.73;4.70;;;;;;;;;;6020237;23;20465;-87
2024/03/20 04:35:41;;;;;;;5.87;5.00;;;;;;;;;;6040459;23;20764;-86
2024/03/20 04:38:10;;;;;;;5.33;4.20;;;;;;;;;;6012938;23;20430;-86
2024/03/20 04:40:46;;;;;;;5.60;3.90;;;;;;;;;;6014954;23;20477;-88
2024/03/20 04:43:21;;;;;;;5.10;4.60;;;;;;;;;;6016970;23;20414;-90
2024/03/20 04:45:48;;;;;;;6.20;4.00;;;;;;;;;;6014872;23;20414;-85
2024/03/20 04:48:14;;;;;;;5.30;4.20;;;;;;;;;;6015622;23;20443;-86
2024/03/20 04:50:45;;;;;;;5.43;4.93;;;;;;;;;;6021432;23;20418;-87
2024/03/20 04:53:20;;;;;;;5.13;3.73;;;;;;;;;;6032580;23;20461;-86
2024/03/20 04:55:47;;;;;;;4.27;3.90;;;;;;;;;;6030606;23;20663;-88
2024/03/20 04:58:16;;;;;;;5.73;4.70;;;;;;;;;;6024536;23;20493;-89
2024/03/20 05:00:43;;;;;;;4.50;4.10;;;;;;;;;;6024083;23;20482;-87
2024/03/20 05:03:09;;;;;;;5.73;4.63;;;;;;;;;;6013804;23;20437;-89
2024/03/20 05:05:36;;;;;;;6.20;4.80;;;;;;;;;;6014262;23;20418;-88
2024/03/20 05:08:03;;;;;;;10.43;5.43;;;;;;;;;;6012692;23;20929;-86
2024/03/20 05:10:29;;;;;;;7.03;5.30;;;;;;;;;;6014320;23;20407;-88
2024/03/20 05:12:56;;;;;;;8.77;5.10;;;;;;;;;;6012824;23;20406;-87
2024/03/20 05:15:22;;;;;;;10.97;6.40;;;;;;;;;;6012814;23;20451;-89
2024/03/20 05:17:49;;;;;;;10.83;5.80;;;;;;;;;;6011972;23;20430;-88
2024/03/20 05:20:20;;;;;;;14.00;5.70;;;;;;;;;;6013001;23;20417;-87
2024/03/20 05:22:47;;;;;;;8.10;5.20;;;;;;;;;;6017289;23;20410;-90
2024/03/20 05:25:13;;;;;;;6.90;5.70;;;;;;;;;;6028277;23;20410;-89
2024/03/20 05:27:40;;;;;;;12.57;5.60;;;;;;;;;;6030424;23;20486;-87
2024/03/20 05:30:06;;;;;;;9.70;6.03;;;;;;;;;;6031156;23;20493;-86
2024/03/20 05:32:33;;;;;;;8.53;6.77;;;;;;;;;;6018973;23;20742;-86
2024/03/20 05:34:59;;;;;;;10.63;6.20;;;;;;;;;;6018339;23;20497;-86
2024/03/20 05:37:30;;;;;;;10.00;5.90;;;;;;;;;;6040162;23;20426;-86
2024/03/20 05:40:04;;;;;;;11.83;6.20;;;;;;;;;;6041944;23;20411;-86
2024/03/20 05:42:39;;;;;;;15.23;6.70;;;;;;;;;;6019891;23;20402;-87
2024/03/20 05:45:09;;;;;;;8.47;6.37;;;;;;;;;;6016407;23;20407;-87
2024/03/20 05:47:40;;;;;;;10.33;6.23;;;;;;;;;;6016475;23;20438;-87
2024/03/20 05:50:25;;;;;;;9.07;6.80;;;;;;;;;;6015683;23;20414;-86
2024/03/20 05:53:04;;;;;;;12.23;6.70;;;;;;;;;;6018295;23;20418;-87
2024/03/20 05:55:47;;;;;;;11.20;6.23;;;;;;;;;;6009831;23;20454;-86
2024/03/20 05:58:26;;;;;;;13.33;6.60;;;;;;;;;;6010155;23;20566;-87
2024/03/20 06:01:10;;;;;;;11.47;6.87;;;;;;;;;;6015035;23;20442;-84
2024/03/20 06:03:43;;;;;;;9.47;6.77;;;;;;;;;;6018827;23;20797;-88
2024/03/20 06:06:13;;;;;;;9.60;6.40;;;;;;;;;;6040616;23;20410;-85
2024/03/20 06:08:46;;;;;;;9.20;6.80;;;;;;;;;;6018372;23;20430;-85
2024/03/20 06:11:31;;;;;;;10.50;6.53;;;;;;;;;;6046518;23;20370;-86
2024/03/20 06:14:01;;;;;;;8.00;6.63;;;;;;;;;;6023496;23;20803;-85
2024/03/20 06:16:28;;;;;;;8.80;6.90;;;;;;;;;;6016785;23;20462;-87
2024/03/20 06:19:01;;;;;;;7.53;6.43;;;;;;;;;;6014280;23;20437;-84
2024/03/20 06:21:33;;;;;;;9.77;7.17;;;;;;;;;;6017020;23;20417;-86
2024/03/20 06:24:04;;;;;;;8.50;7.43;;;;;;;;;;6017402;23;20831;-86
2024/03/20 06:26:35;;;;;;;10.10;7.63;;;;;;;;;;6015667;23;20403;-86
2024/03/20 06:29:09;;;;;;;8.60;7.63;;;;;;;;;;6016552;23;20399;-86
2024/03/20 06:31:37;;;;;;;10.20;7.87;;;;;;;;;;6017435;23;20406;-86
2024/03/20 06:34:21;;;;;;;10.60;8.07;;;;;;;;;;6019730;23;20412;-86
2024/03/20 06:37:15;;;;;;;;;;;;;;;;;;;;;
2024/03/20 06:39:58;;;;;;;14.87;10.30;;;;;;;;;;6071463;23;20416;-88
2024/03/20 06:42:27;;;;;;;9.30;7.37;;;;;;;;;;6026127;23;20395;-87
2024/03/20 06:45:03;;;;;;;10.33;7.60;;;;;;;;;;6034078;23;20406;-89
2024/03/20 06:47:44;;;;;;;10.87;7.10;;;;;;;;;;6031704;23;20512;-85
2024/03/20 06:50:13;;;;;;;15.70;7.60;;;;;;;;;;6028384;23;20412;-86
2024/03/20 06:52:40;;;;;;;14.00;8.27;;;;;;;;;;6026042;23;20402;-85
2024/03/20 06:55:14;;;;;;;10.10;8.10;;;;;;;;;;6014560;23;20462;-87
2024/03/20 06:57:49;;;;;;;10.07;8.13;;;;;;;;;;6016754;23;20425;-86
2024/03/20 07:00:26;;;;;;;11.83;9.50;;;;;;;;;;6015523;23;20405;-86
2024/03/20 07:03:04;;;;;;;10.50;8.27;;;;;;;;;;6017304;23;20406;-86
2024/03/20 07:05:41;;;;;;;10.20;8.53;;;;;;;;;;5988108;23;20411;-86
2024/03/20 07:08:18;;;;;;;10.50;8.30;;;;;;;;;;6016430;23;20445;-87
2024/03/20 07:10:58;;;;;;;9.83;7.80;;;;;;;;;;6015690;23;20409;-86
2024/03/20 07:13:33;;;;;;;12.20;9.60;;;;;;;;;;6016374;23;20421;-87
2024/03/20 07:16:03;;;;;;;11.07;8.43;;;;;;;;;;6012191;23;20871;-87
2024/03/20 07:18:57;;;;;;;14.13;8.97;;;;;;;;;;6034518;23;20417;-86
2024/03/20 07:21:32;;;;;;;13.03;8.93;;;;;;;;;;6017756;23;20424;-87
2024/03/20 07:24:07;;;;;;;11.53;9.20;;;;;;;;;;6008659;23;20401;-89
2024/03/20 07:29:14;;;;;;;11.77;8.90;;;;;;;;;;6067770;23;20520;-88
2024/03/20 07:31:43;;;;;;;12.23;9.90;;;;;;;;;;6063797;23;20424;-87
2024/03/20 07:34:36;;;;;;;14.03;9.70;;;;;;;;;;5960770;23;20518;-88
2024/03/20 07:37:06;;;;;;;9.83;8.83;;;;;;;;;;6013281;23;20434;-87
2024/03/20 07:39:41;;;;;;;9.70;8.40;;;;;;;;;;6014985;23;20493;-90
2024/03/20 07:42:14;;;;;;;10.43;9.20;;;;;;;;;;6012679;23;20414;-87
2024/03/20 07:44:41;;;;;;;11.27;8.63;;;;;;;;;;6014148;23;20412;-86
2024/03/20 07:49:57;;;;;;;12.20;8.80;;;;;;;;;;6093326;23;20471;-86
2024/03/20 07:52:26;;;;;;;10.50;8.53;;;;;;;;;;6032222;23;20408;-87
2024/03/20 07:55:00;;;;;;;10.77;8.40;;;;;;;;;;6043265;23;20471;-87
2024/03/20 07:57:36;;;;;;;14.50;9.10;;;;;;;;;;6038442;23;20466;-86
2024/03/20 08:00:16;;;;;;;11.37;9.27;;;;;;;;;;6044133;23;20401;-86
2024/03/20 08:06:35;;;;;;;15.10;9.73;;;;;;;;;;6064031;23;20951;-87
2024/03/20 08:09:16;;;;;;;12.23;8.57;;;;;;;;;;6032720;23;21236;-87
2024/03/20 08:12:13;;;;;;;9.53;8.00;;;;;;;;;;6043116;23;20401;-88
2024/03/20 08:15:15;;;;;;;11.07;8.97;;;;;;;;;;6058200;23;20450;-89
2024/03/20 08:17:52;;;;;;;13.70;9.60;;;;;;;;;;6053727;23;20554;-89
2024/03/20 08:20:39;;;;;;;;;;;;;;;;;;;;;
2024/03/20 08:23:19;;;;;;;;;;;;;;;;;;;;;
2024/03/20 08:29:33;;;;;;;14.33;9.50;;;;;;;;;;6101146;23;20467;-86
2024/03/20 08:32:23;;;;;;;12.40;8.87;;;;;;;;;;6054737;23;20410;-87
2024/03/20 08:34:56;;;;;;;10.70;9.10;;;;;;;;;;6069257;23;20408;-89
2024/03/20 08:43:41;;;;;;;11.10;8.87;;;;;;;;;;6090504;23;21112;-86
2024/03/20 08:46:17;;;;;;;11.10;8.53;;;;;;;;;;6075324;23;20397;-84
2024/03/20 08:48:44;;;;;;;13.27;9.67;;;;;;;;;;6049364;23;20432;-87
2024/03/20 08:51:13;;;;;;;11.60;8.97;;;;;;;;;;6048336;23;20405;-88
2024/03/20 08:53:42;;;;;;;13.70;9.17;;;;;;;;;;6047496;23;20420;-89
2024/03/20 08:56:10;;;;;;;11.63;8.73;;;;;;;;;;6049237;23;20981;-87
2024/03/20 08:58:43;;;;;;;11.47;8.40;;;;;;;;;;6052007;23;20436;-87
2024/03/20 09:01:17;;;;;;;10.60;9.50;;;;;;;;;;6049320;23;20717;-86
2024/03/20 09:04:22;;;;;;;10.47;8.70;;;;;;;;;;6027644;23;20410;-89
2024/03/20 09:07:10;;;;;;;9.27;7.70;;;;;;;;;;6079900;23;20450;-86
2024/03/20 09:09:52;;;;;;;11.87;8.77;;;;;;;;;;6029887;23;20429;-86
2024/03/20 09:12:32;;;;;;;11.07;9.40;;;;;;;;;;6060044;23;20424;-86
2024/03/20 09:15:05;;;;;;;9.97;8.10;;;;;;;;;;6061806;23;20433;-87
2024/03/20 09:17:44;;;;;;;10.73;8.03;;;;;;;;;;6067314;23;20427;-88
2024/03/20 09:20:16;;;;;;;11.20;8.10;;;;;;;;;;6063574;23;20405;-88
2024/03/20 09:22:43;;;;;;;11.90;7.77;;;;;;;;;;6068465;23;20505;-89
2024/03/20 09:25:18;;;;;;;12.53;8.37;;;;;;;;;;6068495;23;20457;-88
2024/03/20 09:27:48;;;;;;;9.77;7.93;;;;;;;;;;6070912;23;20492;-89
2024/03/20 09:33:39;;;;;;;12.00;8.00;;;;;;;;;;6090434;23;20404;-89
2024/03/20 09:36:19;;;;;;;10.50;7.97;;;;;;;;;;6068371;23;20440;-88
2024/03/20 09:38:55;;;;;;;9.80;8.80;;;;;;;;;;6067470;23;20481;-89
2024/03/20 09:41:28;;;;;;;10.67;8.50;;;;;;;;;;6068181;23;20491;-88
2024/03/20 09:44:00;;;;;;;10.13;8.10;;;;;;;;;;6068815;23;20495;-88
2024/03/20 09:46:37;;;;;;;9.80;8.10;;;;;;;;;;6066860;23;20480;-88
2024/03/20 09:49:04;;;;;;;10.50;8.47;;;;;;;;;;6051785;23;20476;-88
2024/03/20 09:51:55;;;;;;;9.20;7.80;;;;;;;;;;6061160;23;20407;-86
2024/03/20 09:54:40;;;;;;;8.97;7.23;;;;;;;;;;6055610;23;20400;-88
2024/03/20 09:57:16;;;;;;;11.00;7.73;;;;;;;;;;6053381;23;20420;-86
2024/03/20 09:59:58;;;;;;;10.70;7.00;;;;;;;;;;6047712;23;20478;-85
2024/03/20 10:02:44;;;;;;;9.50;6.60;;;;;;;;;;6048018;23;20417;-85
2024/03/20 10:05:25;;;;;;;14.40;7.07;;;;;;;;;;6044910;23;21065;-86
2024/03/20 10:07:57;;;;;;;10.80;7.20;;;;;;;;;;6045969;23;20426;-87
2024/03/20 10:10:35;;;;;;;8.10;7.07;;;;;;;;;;6039573;23;20609;-85
2024/03/20 10:16:23;;;;;;;10.37;7.10;;;;;;;;;;6067781;23;20455;-88
2024/03/20 10:19:13;;;;;;;7.57;6.50;;;;;;;;;;6047434;23;20429;-85
2024/03/20 10:21:57;;;;;;;;;;;;;;;;;;;;;
2024/03/20 10:24:39;;;;;;;7.93;6.00;;;;;;;;;;6065124;23;20473;-87
2024/03/20 10:27:21;;;;;;;10.90;5.90;;;;;;;;;;6048228;23;20432;-87
2024/03/20 10:30:15;;;;;;;7.03;6.20;;;;;;;;;;6048878;23;20405;-87
2024/03/20 10:36:15;;;;;;;6.43;5.80;;;;;;;;;;6058361;23;20452;-88
2024/03/20 10:39:43;;;;;;;;;;;;;;;;;;;;;
2024/03/20 10:42:21;;;;;;;;;;;;;;;;;;;;;
2024/03/20 10:45:13;;;;;;;6.17;5.33;;;;;;;;;;6075764;23;20394;-89
2024/03/20 10:48:09;;;;;;;6.97;5.40;;;;;;;;;;6033782;23;20500;-89
2024/03/20 10:51:39;;;;;;;;;;;;;;;;;;;;;
2024/03/20 10:54:38;;;;;;;6.53;5.17;;;;;;;;;;6060906;23;20471;-89
2024/03/20 11:03:10;;;;;;;5.17;4.67;;;;;;;;;;6116860;23;20488;-89
2024/03/20 11:09:10;;;;;;;5.97;4.30;;;;;;;;;;6085663;23;20455;-86
2024/03/20 11:11:55;;;;;;;6.57;4.33;;;;;;;;;;6002464;23;20404;-85
2024/03/20 11:15:05;;;;;;;12.37;4.90;;;;;;;;;;6056343;23;20417;-87
2024/03/20 11:17:43;;;;;;;5.23;4.73;;;;;;;;;;5901168;24;20432;-87
2024/03/20 11:20:33;;;;;;;6.00;5.17;;;;;;;;;;5871885;24;20423;-85
2024/03/20 11:23:39;;;;;;;4.83;4.30;;;;;;;;;;5776145;24;20900;-87
2024/03/20 11:26:30;;;;;;;9.20;5.33;;;;;;;;;;5881979;24;20947;-86
2024/03/20 11:29:44;;;;;;;4.10;3.63;;;;;;;;;;6019066;23;20393;-85
2024/03/20 11:32:30;;;;;;;4.43;3.40;;;;;;;;;;6027215;23;20433;-85
2024/03/20 11:35:17;;;;;;;4.30;3.10;;;;;;;;;;6023441;23;20409;-86
2024/03/20 11:38:01;;;;;;;3.80;2.67;;;;;;;;;;6021251;23;20503;-86
2024/03/20 11:40:37;;;;;;;4.10;2.47;;;;;;;;;;6026232;23;20410;-86
2024/03/20 11:43:07;;;;;;;4.70;2.57;;;;;;;;;;5998765;23;20790;-84
2024/03/20 11:46:14;;;;;;;6.13;2.70;;;;;;;;;;6051232;23;20461;-85
2024/03/20 11:49:07;;;;;;;4.00;2.70;;;;;;;;;;6038313;23;20456;-86
2024/03/20 11:55:25;;;;;;;3.00;2.20;;;;;;;;;;5901733;24;20604;-88
2024/03/20 11:58:00;;;;;;;4.93;1.90;;;;;;;;;;5955046;24;20457;-85
2024/03/20 12:00:40;;;;;;;5.30;2.10;;;;;;;;;;5952564;24;20409;-84
2024/03/20 12:03:36;;;;;;;1.80;1.70;;;;;;;;;;5928120;24;20410;-85
2024/03/20 12:09:22;;;;;;;2.73;1.73;;;;;;;;;;5929245;24;20425;-86
2024/03/20 12:12:14;;;;;;;2.73;1.77;;;;;;;;;;5953452;24;20410;-86
2024/03/20 12:14:45;;;;;;;3.37;1.70;;;;;;;;;;5957377;24;20419;-89
2024/03/20 12:17:12;;;;;;;2.53;1.77;;;;;;;;;;5955151;24;21325;-86
2024/03/20 12:19:44;;;;;;;3.20;1.73;;;;;;;;;;5955460;24;20491;-87
2024/03/20 12:22:17;;;;;;;2.77;1.57;;;;;;;;;;5957623;24;20445;-87
2024/03/20 12:24:45;;;;;;;3.47;1.50;;;;;;;;;;5956649;24;20464;-85
2024/03/20 12:27:23;;;;;;;2.87;1.67;;;;;;;;;;5958154;24;20429;-86
2024/03/20 12:29:56;;;;;;;2.57;2.37;;;;;;;;;;5972966;23;20409;-88
2024/03/20 12:32:36;;;;;;;4.20;1.63;;;;;;;;;;6035112;23;20390;-89
2024/03/20 12:35:05;;;;;;;3.00;1.90;;;;;;;;;;6014714;23;20790;-90
2024/03/20 12:37:43;;;;;;;1.70;1.30;;;;;;;;;;6033865;23;20486;-89
2024/03/20 12:40:13;;;;;;;1.97;1.50;;;;;;;;;;6049582;23;20398;-89
2024/03/20 12:45:41;;;;;;;2.40;1.70;;;;;;;;;;6019046;23;20403;-92
2024/03/20 12:48:19;;;;;;;1.87;1.60;;;;;;;;;;6035116;23;20415;-91
2024/03/20 12:50:51;;;;;;;1.87;1.57;;;;;;;;;;6025256;23;21419;-89
2024/03/20 12:53:30;;;;;;;3.27;1.73;;;;;;;;;;6043874;23;20402;-88
2024/03/20 12:56:03;;;;;;;2.93;2.00;;;;;;;;;;6041185;23;20442;-88
2024/03/20 12:58:39;;;;;;;3.63;1.67;;;;;;;;;;6041939;23;20440;-87
2024/03/20 13:01:20;;;;;;;3.27;1.50;;;;;;;;;;6019125;23;20411;-88
2024/03/20 13:03:47;;;;;;;4.70;1.80;;;;;;;;;;6031378;23;20396;-90
2024/03/20 13:06:21;;;;;;;2.67;1.43;;;;;;;;;;6031103;23;20407;-88
2024/03/20 13:08:58;;;;;;;2.80;1.30;;;;;;;;;;6048773;23;20451;-87
2024/03/20 13:11:27;;;;;;;3.37;1.60;;;;;;;;;;6046311;23;20412;-88
2024/03/20 13:13:57;;;;;;;2.00;1.80;;;;;;;;;;6023467;23;20405;-86
2024/03/20 13:16:23;;;;;;;6.57;1.60;;;;;;;;;;6023483;23;20449;-86
2024/03/20 13:18:56;;;;;;;2.87;1.67;;;;;;;;;;6022736;23;20490;-86
2024/03/20 13:21:29;;;;;;;2.70;1.70;;;;;;;;;;6028507;23;20409;-92
2024/03/20 13:24:11;;;;;;;1.90;1.70;;;;;;;;;;6025407;23;20412;-88
2024/03/20 13:26:50;;;;;;;3.00;1.93;;;;;;;;;;6023540;23;20406;-88
2024/03/20 13:29:22;;;;;;;3.33;1.60;;;;;;;;;;6042858;23;20417;-88
2024/03/20 13:31:53;;;;;;;2.40;2.17;;;;;;;;;;6026061;23;20413;-87
2024/03/20 13:34:27;;;;;;;3.07;1.60;;;;;;;;;;6021686;23;20480;-88
2024/03/20 13:36:56;;;;;;;1.77;1.43;;;;;;;;;;6045730;23;20454;-88
2024/03/20 13:39:44;;;;;;;4.03;1.57;;;;;;;;;;6025482;23;20761;-89
2024/03/20 13:43:38;;;;;;;2.73;1.70;;;;;;;;;;6077185;23;20879;-88
2024/03/20 13:45:38;;;;;;;1.83;1.70;;;;;;;;;;6038864;23;20440;-87
2024/03/20 13:48:08;;;;;;;2.50;1.90;;;;;;;;;;6020677;23;20436;-89
2024/03/20 13:50:39;;;;;;;2.80;1.90;;;;;;;;;;6022352;23;20412;-87
2024/03/20 13:53:12;;;;;;;3.43;2.33;;;;;;;;;;6000824;23;20424;-87
2024/03/20 13:55:46;;;;;;;4.87;2.17;;;;;;;;;;6051361;23;20441;-91
2024/03/20 13:58:17;;;;;;;2.30;1.97;;;;;;;;;;6030345;23;20413;-89
2024/03/20 14:00:51;;;;;;;2.13;1.80;;;;;;;;;;6023121;23;20915;-89
2024/03/20 14:03:18;;;;;;;2.17;1.73;;;;;;;;;;6022630;23;20404;-87
2024/03/20 14:05:45;;;;;;;1.97;1.20;;;;;;;;;;6044692;23;20410;-87
2024/03/20 14:08:23;;;;;;;5.50;2.07;;;;;;;;;;6021397;23;20781;-87
2024/03/20 14:11:05;;;;;;;3.30;1.90;;;;;;;;;;6049740;23;20401;-90
2024/03/20 14:13:35;;;;;;;2.40;1.30;;;;;;;;;;6021937;23;20441;-87
2024/03/20 14:16:03;;;;;;;3.80;1.67;;;;;;;;;;6046773;23;20500;-87
2024/03/20 14:18:51;;;;;;;1.80;1.57;;;;;;;;;;6022433;23;20460;-88
2024/03/20 14:21:20;;;;;;;2.00;1.90;;;;;;;;;;6044297;23;20393;-89
2024/03/20 14:30:44;;;;;;;5.10;1.60;;;;;;;;;;6075096;23;20477;-85
2024/03/20 14:33:38;;;;;;;1.70;1.60;;;;;;;;;;6049459;23;20772;-87
2024/03/20 14:36:14;;;;;;;3.43;1.30;;;;;;;;;;6019453;23;20441;-87
2024/03/20 14:38:43;;;;;;;2.10;1.60;;;;;;;;;;6070612;23;20421;-86
2024/03/20 14:41:13;;;;;;;3.40;1.53;;;;;;;;;;6023743;23;20404;-87
2024/03/20 14:43:55;;;;;;;1.50;1.40;;;;;;;;;;6022724;23;20499;-87
2024/03/20 14:46:23;;;;;;;4.23;1.80;;;;;;;;;;6020655;23;20398;-87
2024/03/20 14:48:53;;;;;;;2.70;1.83;;;;;;;;;;6016276;23;20426;-86
2024/03/20 14:51:20;;;;;;;1.57;1.40;;;;;;;;;;6021159;23;20397;-87
2024/03/20 14:53:51;;;;;;;2.73;1.97;;;;;;;;;;6019354;23;20382;-88
2024/03/20 14:56:28;;;;;;;2.30;2.10;;;;;;;;;;6039359;23;20587;-88
2024/03/20 14:58:57;;;;;;;6.23;1.87;;;;;;;;;;6019661;23;20426;-89
2024/03/20 15:01:26;;;;;;;2.10;1.87;;;;;;;;;;6019383;23;20390;-86
2024/03/20 15:03:53;;;;;;;2.83;2.07;;;;;;;;;;6030502;23;20418;-93
2024/03/20 15:06:24;;;;;;;4.30;1.97;;;;;;;;;;6037118;23;20505;-89
2024/03/20 15:08:56;;;;;;;3.07;1.87;;;;;;;;;;6040995;23;20488;-89
2024/03/20 15:11:25;;;;;;;3.30;2.37;;;;;;;;;;6042047;23;20509;-89
2024/03/20 15:13:57;;;;;;;1.80;1.63;;;;;;;;;;6042807;23;20442;-87
2024/03/20 15:16:24;;;;;;;1.83;1.73;;;;;;;;;;6031915;23;20449;-86
2024/03/20 15:18:53;;;;;;;1.83;1.67;;;;;;;;;;6024554;23;20436;-88
2024/03/20 15:21:27;;;;;;;1.60;1.50;;;;;;;;;;6023149;23;20420;-86
2024/03/20 15:23:59;;;;;;;3.07;1.60;;;;;;;;;;6029257;23;20402;-88
2024/03/20 15:26:25;;;;;;;2.00;1.50;;;;;;;;;;6038062;23;20413;-89
2024/03/20 15:28:54;;;;;;;3.43;1.93;;;;;;;;;;6041142;23;20497;-91
2024/03/20 15:31:24;;;;;;;1.90;1.80;;;;;;;;;;6050211;23;20405;-89
2024/03/20 15:33:51;;;;;;;2.30;1.60;;;;;;;;;;6050623;23;20697;-86
2024/03/20 15:36:19;;;;;;;3.23;2.17;;;;;;;;;;6049456;23;20450;-84
2024/03/20 15:38:49;;;;;;;3.50;1.73;;;;;;;;;;6049750;23;20452;-86
2024/03/20 15:41:25;;;;;;;1.70;1.60;;;;;;;;;;6094480;23;20410;-87
2024/03/20 15:43:53;;;;;;;3.07;2.10;;;;;;;;;;6047277;23;20406;-87
2024/03/20 15:46:24;;;;;;;2.50;2.00;;;;;;;;;;6047587;23;20412;-87
2024/03/20 15:48:54;;;;;;;1.70;1.60;;;;;;;;;;6048145;23;20432;-87
2024/03/20 15:51:24;;;;;;;2.63;2.37;;;;;;;;;;6047165;23;20410;-89
2024/03/20 15:53:59;;;;;;;3.90;1.93;;;;;;;;;;6048711;23;20412;-87
2024/03/20 15:56:31;;;;;;;2.97;2.43;;;;;;;;;;6095778;23;20437;-89
2024/03/20 15:58:58;;;;;;;6.77;1.63;;;;;;;;;;6048155;23;20465;-87
2024/03/20 16:01:25;;;;;;;2.47;1.60;;;;;;;;;;6045696;23;20884;-88
2024/03/20 16:03:59;;;;;;;2.27;2.07;;;;;;;;;;6044470;23;20742;-86
2024/03/20 16:06:35;;;;;;;4.10;1.67;;;;;;;;;;6045001;23;20406;-87
2024/03/20 16:09:15;;;;;;;3.63;2.00;;;;;;;;;;6047262;23;20748;-87
2024/03/20 16:11:44;;;;;;;3.17;2.27;;;;;;;;;;6047987;23;21024;-90
2024/03/20 16:14:17;;;;;;;3.40;2.93;;;;;;;;;;6042186;23;20442;-87
2024/03/20 16:16:43;;;;;;;2.00;1.80;;;;;;;;;;6044522;23;20441;-90
2024/03/20 16:19:19;;;;;;;3.10;1.40;;;;;;;;;;6044997;23;20413;-86
2024/03/20 16:21:50;;;;;;;3.30;1.80;;;;;;;;;;6047048;23;20482;-88
2024/03/20 16:24:22;;;;;;;3.03;1.73;;;;;;;;;;6056439;23;20582;-87
2024/03/20 16:26:57;;;;;;;3.63;2.43;;;;;;;;;;6045333;23;20406;-87